LRBC/BCM METAR and TAF weather

Enter ICAO airport designator
Station Type Date Time Source
LRBC METAR 2019/10/15 04:00 UTC NOAA

LRBC 150400Z 17002KT 0400 R34/0450N FG VV001 11/11 Q1020


Station Type Date Time Source
LRBC Decoded METAR 2019/10/15 04:00 UTC NOAA

Bacau, Romania (LRBC) 46-35N 026-58E 190M
Oct 15, 2019 - 12:00 AM EDT / 2019.10.15 0400 UTC
Wind: from the S (170 degrees) at 2 MPH (2 KT):0
Visibility: less than 1 mile:0
Sky conditions: obscured
Weather: fog
Temperature: 51 F (11 C)
Dew Point: 51 F (11 C)
Relative Humidity: 100%
Pressure (altimeter): 30.12 in. Hg (1020 hPa)
ob: LRBC 150400Z 17002KT 0400 R34/0450N FG VV001 11/11 Q1020
cycle: 4

Station Type Date Time Source
LRBC TAF 2010/08/31 20:30 UTC NOAA

TAF LRBC 312030Z 3121/0203 CNL

Example: see airport list